Terminal Aerodrome Forecast
Issued by NWS

Home | Current Version | Previous Version | Text Only | Print | Product List | Glossary On
Versions: 1 2 3 4 5 6 7 8 9 10 11 12 13 14
009
FTUS44 KJAN 190534
TAFHKS
TAF
KHKS 190534Z 1906/2006 35012G20KT P6SM SKC
     FM191100 35008KT P6SM SKC
     FM191500 36012G25KT P6SM SKC
     FM191900 34009KT P6SM SKC=

USA.gov is the U.S. government's official web portal to all federal, state and local government web resources and services.